Time;durP1;ratioP1;P1;durP2;ratioP2;P2;SDS_P1;SDS_P2;PMS_P1;PMS_P2;Temp;Humidity;BMP_temperature;BMP_pressure;BME280_temperature;BME280_humidity;BME280_pressure;Samples;Min_cycle;Max_cycle;Signal;HPM_P1;HPM_P2
2022/07/20 00:02:07;;;;;;;2.60;2.30;;;;;;;24.13;44.49;98288.19;5025589;28;20084;-83
2022/07/20 00:04:34;;;;;;;2.80;2.60;;;;;;;24.10;44.55;98292.22;5027561;28;20468;-82
2022/07/20 00:07:00;;;;;;;2.35;2.15;;;;;;;24.10;44.63;98289.53;5029744;28;20532;-81
2022/07/20 00:12:12;;;;;;;2.90;2.70;;;;;;;24.04;43.91;98279.94;5029046;28;20033;-82
2022/07/20 00:14:39;;;;;;;2.40;2.20;;;;;;;24.01;45.00;98281.31;5026124;28;20053;-82
2022/07/20 00:17:06;;;;;;;3.35;2.50;;;;;;;23.98;44.65;98281.88;5026703;28;20088;-82
2022/07/20 00:19:32;;;;;;;2.83;2.50;;;;;;;24.00;45.03;98286.97;5021666;28;20041;-82
2022/07/20 00:22:00;;;;;;;2.78;2.30;;;;;;;23.85;45.31;98274.50;5025625;28;20042;-82
2022/07/20 00:24:26;;;;;;;2.90;2.35;;;;;;;23.80;45.81;98279.91;5019616;28;20112;-82
2022/07/20 00:26:53;;;;;;;2.65;2.45;;;;;;;23.77;46.47;98286.63;5028495;28;20045;-82
2022/07/20 00:29:20;;;;;;;2.95;2.53;;;;;;;23.70;46.94;98280.81;5026552;28;20124;-82
2022/07/20 00:31:47;;;;;;;2.75;2.55;;;;;;;23.60;46.77;98286.19;5025301;28;20092;-83
2022/07/20 00:34:13;;;;;;;2.65;2.45;;;;;;;23.36;46.88;98277.28;5028539;28;20088;-82
2022/07/20 00:36:40;;;;;;;3.33;3.03;;;;;;;23.19;47.03;98280.31;5025660;28;20618;-82
2022/07/20 00:39:07;;;;;;;3.00;2.80;;;;;;;23.07;47.51;98277.97;5026949;28;20042;-83
2022/07/20 00:41:34;;;;;;;2.67;2.47;;;;;;;23.07;48.02;98283.31;5042738;28;20473;-82
2022/07/20 00:44:04;;;;;;;5.13;3.00;;;;;;;22.89;47.86;98286.63;5029512;28;20099;-82
2022/07/20 00:46:35;;;;;;;2.75;2.55;;;;;;;22.77;48.27;98275.41;5026571;28;20099;-82
2022/07/20 00:49:03;;;;;;;2.78;2.58;;;;;;;22.66;48.12;98277.34;5024857;28;20454;-82
2022/07/20 00:51:30;;;;;;;3.30;2.85;;;;;;;22.52;47.91;98274.44;5028777;28;20046;-83
2022/07/20 00:53:58;;;;;;;3.70;3.40;;;;;;;22.52;47.92;98269.09;5033184;28;20038;-82
2022/07/20 00:56:25;;;;;;;3.17;2.65;;;;;;;22.64;48.15;98279.50;5032275;28;20076;-82
2022/07/20 00:58:52;;;;;;;2.92;2.60;;;;;;;22.73;48.80;98264.50;5021414;28;20077;-82
2022/07/20 01:01:20;;;;;;;2.60;2.40;;;;;;;22.86;47.47;98271.13;5026781;28;20041;-83
2022/07/20 01:03:47;;;;;;;2.60;2.40;;;;;;;22.98;48.49;98279.66;5022381;28;20520;-83
2022/07/20 01:06:14;;;;;;;3.08;2.60;;;;;;;22.82;47.84;98267.38;5027507;28;20493;-83
2022/07/20 01:08:41;;;;;;;3.67;2.80;;;;;;;22.63;48.15;98272.53;5023633;28;20045;-82
2022/07/20 01:11:08;;;;;;;3.60;3.30;;;;;;;22.48;48.04;98276.06;5023091;28;20037;-82
2022/07/20 01:13:35;;;;;;;3.08;2.88;;;;;;;22.40;47.60;98271.28;5025909;28;20073;-82
2022/07/20 01:16:02;;;;;;;3.70;3.00;;;;;;;22.31;49.07;98276.41;5026876;28;20099;-83
2022/07/20 01:18:29;;;;;;;3.58;3.28;;;;;;;22.20;48.42;98269.47;5024632;28;20049;-82
2022/07/20 01:21:03;;;;;;;4.15;3.10;;;;;;;22.09;49.19;98268.69;5026570;28;20080;-82
2022/07/20 01:23:31;;;;;;;3.35;2.92;;;;;;;22.02;49.68;98278.81;5006601;28;20441;-83
2022/07/20 01:25:58;;;;;;;3.80;3.50;;;;;;;21.89;49.89;98282.84;5020594;28;20092;-82
2022/07/20 01:28:29;;;;;;;3.90;3.30;;;;;;;21.80;49.71;98280.97;5027344;28;20096;-83
2022/07/20 01:30:56;;;;;;;4.93;2.95;;;;;;;21.75;50.10;98272.97;5026296;28;20034;-83
2022/07/20 01:33:23;;;;;;;3.22;2.92;;;;;;;21.77;49.71;98276.16;5022822;28;20045;-83
2022/07/20 01:35:49;;;;;;;3.08;2.83;;;;;;;21.77;50.34;98265.47;5025677;28;20077;-83
2022/07/20 01:38:16;;;;;;;4.35;3.08;;;;;;;21.74;50.58;98260.69;5023104;28;20049;-83
2022/07/20 01:40:43;;;;;;;2.92;2.70;;;;;;;21.78;50.29;98267.09;5030831;28;20103;-83
2022/07/20 01:43:10;;;;;;;3.50;2.60;;;;;;;21.81;50.20;98267.34;5021837;28;20512;-83
2022/07/20 01:45:36;;;;;;;2.78;2.58;;;;;;;21.83;50.94;98264.41;5021021;28;20045;-83
2022/07/20 01:48:04;;;;;;;2.60;2.40;;;;;;;21.89;51.19;98263.31;5023080;28;20068;-83
2022/07/20 01:50:31;;;;;;;2.63;2.42;;;;;;;22.01;50.33;98260.38;5027342;28;20149;-82
2022/07/20 01:52:58;;;;;;;2.88;2.42;;;;;;;21.98;50.19;98263.59;5009343;28;20440;-83
2022/07/20 01:55:25;;;;;;;2.50;2.30;;;;;;;22.03;49.94;98259.06;5024455;28;20073;-83
2022/07/20 01:57:52;;;;;;;2.53;2.33;;;;;;;22.03;49.83;98247.56;5030254;28;20037;-83
2022/07/20 02:00:18;;;;;;;2.00;1.90;;;;;;;22.09;49.92;98247.31;5026786;28;20101;-82
2022/07/20 02:02:48;;;;;;;2.42;2.22;;;;;;;22.13;50.18;98248.38;5025237;28;20450;-82
2022/07/20 02:05:17;;;;;;;2.45;2.25;;;;;;;22.23;49.54;98260.09;5023226;28;20121;-83
2022/07/20 02:07:45;;;;;;;2.75;2.40;;;;;;;22.06;49.82;98253.16;5019808;28;20474;-83
2022/07/20 02:10:15;;;;;;;2.83;2.47;;;;;;;21.93;50.45;98261.72;5025633;28;20050;-83
2022/07/20 02:12:42;;;;;;;3.07;2.70;;;;;;;21.73;50.63;98259.88;5030211;28;20037;-82
2022/07/20 02:15:11;;;;;;;3.15;2.83;;;;;;;21.51;51.38;98254.81;5028108;28;20100;-83
2022/07/20 02:17:39;;;;;;;2.90;2.60;;;;;;;21.51;50.61;98270.81;5023981;28;20041;-82
2022/07/20 02:20:08;;;;;;;2.80;2.58;;;;;;;21.42;51.08;98261.75;5022876;28;20045;-83
2022/07/20 02:22:35;;;;;;;3.13;2.92;;;;;;;21.40;51.20;98263.88;5021549;28;20389;-82
2022/07/20 02:25:02;;;;;;;3.10;2.80;;;;;;;21.45;50.93;98271.88;5026142;28;20091;-83
2022/07/20 02:27:28;;;;;;;2.67;2.47;;;;;;;21.52;51.53;98269.75;5024734;28;20045;-83
2022/07/20 02:29:55;;;;;;;2.40;2.20;;;;;;;21.59;51.55;98259.63;5013481;28;20087;-83
2022/07/20 02:32:22;;;;;;;2.67;2.35;;;;;;;21.64;52.23;98256.94;5024175;28;20497;-83
2022/07/20 02:34:48;;;;;;;2.40;2.20;;;;;;;21.69;51.81;98260.69;5007930;28;20089;-82
2022/07/20 02:37:15;;;;;;;2.50;2.30;;;;;;;21.79;51.46;98255.34;5022111;28;20045;-82
2022/07/20 02:39:42;;;;;;;2.78;2.55;;;;;;;21.84;51.01;98255.34;5024985;28;20045;-82
2022/07/20 02:42:08;;;;;;;2.70;2.45;;;;;;;21.71;51.18;98251.34;5024624;28;20038;-83
2022/07/20 02:44:35;;;;;;;3.95;2.80;;;;;;;21.48;51.58;98242.00;5025576;28;20103;-83
2022/07/20 02:47:02;;;;;;;3.85;2.97;;;;;;;21.36;51.81;98252.16;5025529;28;20045;-83
2022/07/20 02:49:28;;;;;;;3.22;2.80;;;;;;;21.14;52.43;98240.88;5021605;28;20057;-82
2022/07/20 02:51:55;;;;;;;2.83;2.53;;;;;;;21.02;53.85;98244.56;5025181;28;20057;-83
2022/07/20 02:54:23;;;;;;;3.10;2.80;;;;;;;20.88;53.54;98246.16;5020380;28;20096;-82
2022/07/20 02:56:50;;;;;;;3.15;2.85;;;;;;;20.87;53.93;98251.72;5024009;28;20485;-83
2022/07/20 02:59:16;;;;;;;2.72;2.50;;;;;;;20.90;53.37;98246.69;5018710;28;20069;-83
2022/07/20 03:01:43;;;;;;;3.25;2.83;;;;;;;20.79;53.81;98237.84;5027759;28;20037;-82
2022/07/20 03:04:10;;;;;;;3.22;2.30;;;;;;;20.94;53.59;98247.78;5032429;28;20103;-82
2022/07/20 03:06:37;;;;;;;3.70;3.03;;;;;;;20.81;53.61;98242.91;5030964;28;20050;-83
2022/07/20 03:09:04;;;;;;;4.07;3.20;;;;;;;20.71;53.00;98245.56;5029287;28;20532;-83
2022/07/20 03:11:30;;;;;;;3.47;3.15;;;;;;;20.69;53.33;98245.00;5032086;28;20080;-83
2022/07/20 03:13:57;;;;;;;2.30;2.10;;;;;;;20.78;54.29;98238.13;5031884;28;20049;-82
2022/07/20 03:16:24;;;;;;;2.65;2.38;;;;;;;20.96;53.94;98253.63;5028414;28;20041;-83
2022/07/20 03:18:51;;;;;;;3.55;2.75;;;;;;;21.06;53.72;98251.00;5029159;28;20037;-83
2022/07/20 03:21:18;;;;;;;2.53;2.33;;;;;;;21.17;53.92;98254.50;5031935;28;20833;-83
2022/07/20 03:23:45;;;;;;;3.08;2.65;;;;;;;21.21;52.52;98257.41;5030734;28;20050;-83
2022/07/20 03:26:11;;;;;;;3.13;2.83;;;;;;;21.15;52.23;98258.47;5036146;28;20083;-82
2022/07/20 03:28:38;;;;;;;2.85;2.55;;;;;;;21.11;52.92;98263.50;5027748;28;20045;-83
2022/07/20 03:31:05;;;;;;;2.97;2.47;;;;;;;21.07;52.79;98263.25;5028377;28;20136;-83
2022/07/20 03:33:32;;;;;;;3.00;2.70;;;;;;;20.96;53.00;98256.28;5030116;28;20124;-82
2022/07/20 03:35:58;;;;;;;3.00;2.80;;;;;;;20.85;52.87;98255.47;5027692;28;20042;-83
2022/07/20 03:38:26;;;;;;;3.30;3.00;;;;;;;20.83;53.68;98262.13;5026095;28;20073;-82
2022/07/20 03:40:53;;;;;;;2.88;2.58;;;;;;;20.83;53.96;98270.91;5034265;28;20389;-82
2022/07/20 03:43:19;;;;;;;2.75;2.47;;;;;;;20.80;53.32;98262.63;5027189;28;20073;-82
2022/07/20 03:45:46;;;;;;;3.28;2.65;;;;;;;20.80;53.43;98262.63;5033081;28;20041;-82
2022/07/20 03:48:13;;;;;;;2.65;2.30;;;;;;;20.78;54.12;98259.44;5027551;28;20543;-82
2022/07/20 03:50:40;;;;;;;2.67;2.25;;;;;;;20.84;53.90;98263.72;5029921;28;20107;-83
2022/07/20 03:53:06;;;;;;;2.53;2.30;;;;;;;20.81;53.76;98264.22;5033782;28;20087;-83
2022/07/20 03:55:33;;;;;;;4.18;2.63;;;;;;;20.73;53.89;98262.09;5028674;28;20464;-82
2022/07/20 03:58:00;;;;;;;2.58;2.38;;;;;;;20.64;54.09;98258.34;5027971;28;20088;-83
2022/07/20 04:00:26;;;;;;;2.72;2.53;;;;;;;20.65;54.96;98276.72;5033208;28;20092;-83
2022/07/20 04:02:53;;;;;;;2.67;2.40;;;;;;;20.70;55.72;98270.63;5034941;28;20041;-82
2022/07/20 04:05:20;;;;;;;3.65;2.85;;;;;;;20.58;54.52;98271.63;5033819;28;20625;-83
2022/07/20 04:07:46;;;;;;;3.25;2.67;;;;;;;20.51;54.88;98260.41;5034238;28;20125;-82
2022/07/20 04:10:13;;;;;;;3.67;2.80;;;;;;;20.47;54.63;98269.97;5029806;28;20389;-82
2022/07/20 04:12:47;;;;;;;3.67;3.17;;;;;;;20.61;57.77;98274.81;5028440;28;20044;-82
2022/07/20 04:15:13;;;;;;;3.38;2.83;;;;;;;20.53;55.54;98262.81;5026924;28;20099;-82
2022/07/20 04:17:41;;;;;;;4.20;2.80;;;;;;;20.43;56.15;98273.38;5020437;28;20092;-82
2022/07/20 04:20:09;;;;;;;2.83;2.63;;;;;;;20.44;54.84;98265.13;5024151;28;20080;-82
2022/07/20 04:22:35;;;;;;;2.85;2.50;;;;;;;20.48;57.13;98278.78;5032506;28;20034;-82
2022/07/20 04:25:02;;;;;;;3.22;3.00;;;;;;;20.57;59.21;98280.69;5028764;28;20467;-82
2022/07/20 04:27:29;;;;;;;3.95;3.63;;;;;;;20.65;58.90;98289.25;5021295;28;20041;-82
2022/07/20 04:29:56;;;;;;;4.45;3.80;;;;;;;20.67;59.20;98274.59;5031698;28;20080;-82
2022/07/20 04:32:22;;;;;;;4.15;3.67;;;;;;;20.70;58.43;98278.63;5029920;28;20033;-82
2022/07/20 04:34:49;;;;;;;3.88;2.80;;;;;;;20.57;56.41;98290.53;5026537;28;20124;-82
2022/07/20 04:37:20;;;;;;;3.63;2.83;;;;;;;20.39;55.74;98283.78;5028373;28;20041;-82
2022/07/20 04:39:46;;;;;;;2.60;2.40;;;;;;;20.39;57.92;98289.09;5028354;28;20859;-82
2022/07/20 04:42:13;;;;;;;3.30;3.00;;;;;;;20.55;59.62;98296.13;5041763;28;20092;-82
2022/07/20 04:44:39;;;;;;;3.20;3.00;;;;;;;20.56;59.63;98288.91;5026185;28;20092;-82
2022/07/20 04:47:06;;;;;;;4.20;3.25;;;;;;;20.62;58.79;98289.75;5025913;28;20038;-82
2022/07/20 04:49:33;;;;;;;3.20;2.90;;;;;;;20.47;58.86;98285.97;5028465;28;20042;-82
2022/07/20 04:52:00;;;;;;;3.95;3.05;;;;;;;20.63;58.91;98300.16;5027399;28;20128;-83
2022/07/20 04:54:27;;;;;;;2.88;2.58;;;;;;;20.61;57.31;98302.28;5023981;28;20041;-82
2022/07/20 04:56:53;;;;;;;3.00;2.78;;;;;;;20.49;56.42;98299.81;5024930;28;20065;-83
2022/07/20 04:59:20;;;;;;;3.38;2.88;;;;;;;20.38;56.87;98297.31;5028023;28;20097;-83
2022/07/20 05:01:46;;;;;;;4.03;3.10;;;;;;;20.27;57.61;98299.13;5026442;28;20042;-84
2022/07/20 05:04:13;;;;;;;3.75;2.65;;;;;;;20.16;58.67;98284.97;5024418;28;20389;-83
2022/07/20 05:06:41;;;;;;;3.30;2.53;;;;;;;20.13;58.52;98295.31;5021815;28;20072;-83
2022/07/20 05:09:10;;;;;;;3.10;2.80;;;;;;;20.15;58.90;98279.88;5026569;28;20037;-83
2022/07/20 05:11:38;;;;;;;2.45;2.25;;;;;;;20.24;58.40;98291.66;5023183;28;20095;-84
2022/07/20 05:14:05;;;;;;;2.72;2.50;;;;;;;20.39;59.64;98297.09;5021032;28;20038;-84
2022/07/20 05:16:32;;;;;;;2.60;2.40;;;;;;;20.53;58.20;98290.25;5022031;28;20087;-84
2022/07/20 05:18:59;;;;;;;3.03;2.35;;;;;;;20.54;57.75;98297.19;5022083;28;20124;-84
2022/07/20 05:21:26;;;;;;;3.33;3.03;;;;;;;20.44;58.75;98294.41;5028892;28;20080;-83
2022/07/20 05:23:52;;;;;;;2.88;2.65;;;;;;;20.49;59.10;98299.00;5030241;28;20120;-83
2022/07/20 05:26:20;;;;;;;2.53;2.33;;;;;;;20.61;59.68;98294.28;5029013;28;20057;-83
2022/07/20 05:28:46;;;;;;;2.83;2.60;;;;;;;20.83;60.98;98296.78;5028260;28;20052;-83
2022/07/20 05:31:14;;;;;;;3.13;2.50;;;;;;;20.98;58.09;98301.34;5027078;28;20045;-83
2022/07/20 05:33:42;;;;;;;2.70;2.50;;;;;;;21.12;58.15;98302.47;5019417;28;20122;-83
2022/07/20 05:36:10;;;;;;;2.53;2.33;;;;;;;21.26;59.00;98287.56;5022111;28;20092;-84
2022/07/20 05:38:36;;;;;;;2.60;2.40;;;;;;;21.49;59.84;98270.28;5029427;28;20046;-83
2022/07/20 05:41:16;;;;;;;4.20;3.00;;;;;;;21.78;57.42;98283.13;5030783;28;20100;-84
2022/07/20 05:43:42;;;;;;;2.95;2.75;;;;;;;21.93;57.84;98280.41;5023179;28;20038;-84
2022/07/20 05:46:09;;;;;;;3.15;2.85;;;;;;;22.06;57.17;98282.53;5019610;28;20049;-83
2022/07/20 05:48:36;;;;;;;3.58;3.28;;;;;;;22.26;55.55;98286.28;5028066;28;20424;-84
2022/07/20 05:51:03;;;;;;;3.65;3.35;;;;;;;22.30;56.30;98290.00;5024819;28;20095;-83
2022/07/20 05:53:29;;;;;;;3.60;3.30;;;;;;;22.45;56.13;98289.97;5018228;28;20145;-83
2022/07/20 05:55:56;;;;;;;3.55;3.25;;;;;;;22.52;55.86;98292.38;5029071;28;20041;-83
2022/07/20 05:58:23;;;;;;;4.18;3.78;;;;;;;22.47;55.04;98293.16;5023042;28;20173;-83
2022/07/20 06:00:50;;;;;;;3.60;3.30;;;;;;;22.59;54.32;98296.34;5024192;28;20041;-83
2022/07/20 06:03:16;;;;;;;5.45;3.33;;;;;;;22.76;53.69;98300.56;5021083;28;20076;-83
2022/07/20 06:05:43;;;;;;;3.20;2.90;;;;;;;23.03;52.76;98298.34;5020418;28;20138;-83
2022/07/20 06:08:10;;;;;;;3.30;3.00;;;;;;;23.27;52.42;98298.47;5020285;28;20041;-83
2022/07/20 06:10:37;;;;;;;3.17;2.90;;;;;;;23.47;52.91;98298.34;5016459;28;20042;-83
2022/07/20 06:13:04;;;;;;;2.95;2.70;;;;;;;23.65;53.04;98304.94;5025256;28;20034;-83
2022/07/20 06:15:36;;;;;;;2.97;2.78;;;;;;;23.79;51.52;98296.25;5022518;28;20041;-83
2022/07/20 06:18:02;;;;;;;3.55;3.10;;;;;;;24.03;52.25;98297.13;5017521;28;20125;-84
2022/07/20 06:20:30;;;;;;;3.00;2.70;;;;;;;24.14;51.53;98287.91;5021871;28;20060;-84
2022/07/20 06:22:58;;;;;;;3.22;2.92;;;;;;;24.28;51.60;98291.50;5028846;28;20033;-85
2022/07/20 06:25:26;;;;;;;3.10;2.80;;;;;;;24.42;51.45;98285.50;5022855;28;20544;-84
2022/07/20 06:27:52;;;;;;;4.32;2.95;;;;;;;24.54;49.23;98281.34;5026356;28;20076;-82
2022/07/20 06:30:20;;;;;;;2.70;2.50;;;;;;;24.54;52.48;98293.97;5025460;28;20046;-83
2022/07/20 06:32:46;;;;;;;3.75;3.10;;;;;;;24.43;49.85;98285.22;5036510;28;20486;-83
2022/07/20 06:35:13;;;;;;;4.97;3.15;;;;;;;24.39;50.32;98275.34;5020861;28;20116;-84
2022/07/20 06:37:40;;;;;;;3.40;3.08;;;;;;;24.58;50.23;98288.81;5020707;28;20126;-84
2022/07/20 06:40:08;;;;;;;3.45;3.15;;;;;;;24.66;49.98;98289.00;5024328;28;20049;-83
2022/07/20 06:42:35;;;;;;;3.47;3.05;;;;;;;24.79;50.03;98282.91;5022597;28;20041;-83
2022/07/20 06:45:03;;;;;;;4.93;2.95;;;;;;;24.83;49.83;98297.38;5035992;28;20041;-84
2022/07/20 06:47:30;;;;;;;4.35;3.20;;;;;;;24.96;47.95;98278.97;5023060;28;20046;-83
2022/07/20 06:49:57;;;;;;;3.63;2.92;;;;;;;25.13;48.39;98281.97;5022935;28;20074;-83
2022/07/20 06:52:31;;;;;;;3.72;3.05;;;;;;;25.31;48.08;98286.56;5026060;28;20524;-84
2022/07/20 06:54:58;;;;;;;3.80;3.50;;;;;;;25.40;46.58;98277.81;5023488;28;20046;-83
2022/07/20 06:57:25;;;;;;;3.35;3.00;;;;;;;25.63;46.58;98268.88;5025335;28;20050;-84
2022/07/20 06:59:51;;;;;;;2.83;2.63;;;;;;;25.97;47.40;98273.16;5029551;28;20517;-84
2022/07/20 07:02:18;;;;;;;4.15;2.80;;;;;;;26.16;46.54;98268.53;5024931;28;20638;-83
2022/07/20 07:04:45;;;;;;;3.10;2.70;;;;;;;26.11;45.85;98255.97;5023389;28;20042;-84
2022/07/20 07:07:12;;;;;;;4.00;2.70;;;;;;;26.39;46.31;98264.88;5026209;28;20084;-84
2022/07/20 07:09:38;;;;;;;3.05;2.67;;;;;;;26.62;43.45;98263.06;5026779;28;20100;-84
2022/07/20 07:12:08;;;;;;;3.05;2.60;;;;;;;26.84;46.08;98261.56;5025122;28;20049;-84
2022/07/20 07:14:36;;;;;;;3.35;2.65;;;;;;;27.11;42.54;98266.09;5024916;28;20142;-84
2022/07/20 07:17:02;;;;;;;2.40;2.20;;;;;;;27.32;43.76;98267.25;5020658;28;20061;-83
2022/07/20 07:19:30;;;;;;;3.13;2.30;;;;;;;27.51;40.83;98268.97;5025548;28;20037;-85
2022/07/20 07:21:56;;;;;;;3.28;2.42;;;;;;;27.61;39.20;98257.97;5027694;28;20046;-82
2022/07/20 07:24:24;;;;;;;2.50;2.00;;;;;;;27.79;39.22;98264.28;5026657;28;20378;-84
2022/07/20 07:26:51;;;;;;;2.90;2.60;;;;;;;27.83;38.06;98266.06;5027632;28;20049;-84
2022/07/20 07:29:19;;;;;;;3.65;2.38;;;;;;;27.97;39.21;98265.97;5023789;28;20049;-85
2022/07/20 07:31:46;;;;;;;2.40;2.13;;;;;;;28.07;38.74;98270.28;5026265;28;20057;-84
2022/07/20 07:34:13;;;;;;;2.40;2.03;;;;;;;28.21;36.80;98266.41;5021015;28;20107;-83
2022/07/20 07:36:40;;;;;;;2.58;2.05;;;;;;;28.32;36.53;98256.19;5024641;28;20156;-84
2022/07/20 07:39:07;;;;;;;4.75;2.90;;;;;;;28.51;36.27;98262.09;5026203;28;20056;-84
2022/07/20 07:41:34;;;;;;;2.50;2.20;;;;;;;28.77;35.74;98258.69;5019668;28;20519;-82
2022/07/20 07:44:01;;;;;;;2.40;2.20;;;;;;;28.93;35.49;98259.06;5023182;28;20442;-84
2022/07/20 07:46:27;;;;;;;2.35;2.15;;;;;;;29.04;34.02;98263.84;5026121;28;20064;-83
2022/07/20 07:48:54;;;;;;;4.53;2.78;;;;;;;29.09;34.29;98256.69;5043084;28;20038;-83
2022/07/20 07:51:21;;;;;;;2.92;2.63;;;;;;;29.25;33.15;98245.09;5025074;28;20041;-84
2022/07/20 07:53:48;;;;;;;2.55;2.35;;;;;;;29.35;34.11;98249.38;5020575;28;20075;-83
2022/07/20 07:56:15;;;;;;;2.45;2.25;;;;;;;29.50;33.63;98254.28;5028733;28;20046;-83
2022/07/20 07:58:41;;;;;;;2.67;2.40;;;;;;;29.52;33.34;98246.69;5024937;28;20080;-83
2022/07/20 08:01:28;;;;;;;2.47;2.30;;;;;;;29.84;34.09;98255.38;5024467;28;20485;-82
2022/07/20 08:03:55;;;;;;;2.60;2.10;;;;;;;29.99;33.65;98256.75;5028678;28;20068;-83
2022/07/20 08:06:22;;;;;;;2.28;2.08;;;;;;;30.10;33.03;98255.28;5022840;28;20053;-82
2022/07/20 08:08:48;;;;;;;2.60;2.10;;;;;;;30.26;32.75;98252.88;5019121;28;20049;-82
2022/07/20 08:11:17;;;;;;;3.13;2.33;;;;;;;30.36;32.19;98239.00;5025238;28;20486;-82
2022/07/20 08:13:43;;;;;;;2.38;2.03;;;;;;;30.48;32.93;98241.81;5021798;28;20041;-83
2022/07/20 08:16:10;;;;;;;2.47;2.28;;;;;;;30.54;31.28;98245.91;5025025;28;20053;-82
2022/07/20 08:18:37;;;;;;;4.90;2.67;;;;;;;30.55;31.47;98235.88;5022510;28;20570;-83
2022/07/20 08:21:05;;;;;;;2.35;2.15;;;;;;;30.64;31.97;98244.72;5028088;28;20069;-82
2022/07/20 08:23:32;;;;;;;2.50;2.30;;;;;;;30.81;30.96;98238.44;5024196;28;20052;-82
2022/07/20 08:25:58;;;;;;;2.65;2.45;;;;;;;30.94;31.45;98237.38;5022307;28;20470;-83
2022/07/20 08:28:26;;;;;;;3.00;2.70;;;;;;;31.04;30.26;98237.00;5025645;28;20516;-81
2022/07/20 08:30:53;;;;;;;3.33;2.47;;;;;;;31.14;29.95;98224.97;5024792;28;20072;-82
2022/07/20 08:33:22;;;;;;;2.13;2.03;;;;;;;31.27;31.16;98231.28;5022601;28;20045;-82
2022/07/20 08:35:49;;;;;;;2.40;2.20;;;;;;;31.36;30.48;98221.13;5024599;28;20073;-82
2022/07/20 08:38:16;;;;;;;2.55;2.30;;;;;;;31.48;30.12;98225.81;5027845;28;20477;-84
2022/07/20 08:40:43;;;;;;;2.63;2.42;;;;;;;31.57;29.57;98227.31;5024822;28;20132;-81
2022/07/20 08:43:10;;;;;;;3.55;2.47;;;;;;;31.64;29.61;98230.28;5024039;28;20065;-82
2022/07/20 08:45:37;;;;;;;3.63;2.70;;;;;;;31.68;29.13;98225.00;5025497;28;20046;-80
2022/07/20 08:48:10;;;;;;;2.75;2.25;;;;;;;31.88;30.51;98232.28;5025858;28;20050;-81
2022/07/20 08:50:38;;;;;;;3.47;2.70;;;;;;;31.89;28.76;98227.66;5026118;28;20037;-81
2022/07/20 08:53:04;;;;;;;2.60;2.30;;;;;;;32.02;29.91;98226.53;5023133;28;20131;-82
2022/07/20 08:55:31;;;;;;;2.70;2.50;;;;;;;31.92;29.32;98210.72;5031365;28;20041;-83
2022/07/20 08:57:58;;;;;;;2.55;2.08;;;;;;;32.09;29.17;98218.66;5025310;28;20037;-82
2022/07/20 09:00:26;;;;;;;2.33;2.05;;;;;;;32.20;28.79;98224.41;5009422;28;20053;-82
2022/07/20 09:03:03;;;;;;;2.40;2.20;;;;;;;32.35;29.83;98222.97;5026081;28;20037;-82
2022/07/20 09:05:36;;;;;;;5.38;3.00;;;;;;;32.24;28.08;98223.38;5023527;28;20437;-82
2022/07/20 09:08:05;;;;;;;2.35;2.17;;;;;;;32.38;29.38;98220.34;5017409;28;20059;-82
2022/07/20 09:10:38;;;;;;;2.53;2.33;;;;;;;32.44;28.60;98219.00;5026487;28;20065;-82
2022/07/20 09:13:17;;;;;;;2.20;2.00;;;;;;;32.60;28.48;98212.88;5021733;28;20033;-82
2022/07/20 09:15:54;;;;;;;2.90;2.58;;;;;;;32.64;28.84;98214.56;5027517;28;20038;-83
2022/07/20 09:18:25;;;;;;;1.98;1.88;;;;;;;32.82;27.98;98209.69;5015130;28;20034;-83
2022/07/20 09:20:58;;;;;;;2.67;2.47;;;;;;;32.85;27.51;98208.19;5022773;28;20068;-82
2022/07/20 09:23:43;;;;;;;2.35;2.15;;;;;;;33.02;28.58;98207.94;5022669;28;20045;-83
2022/07/20 09:26:10;;;;;;;2.58;2.03;;;;;;;33.16;27.69;98207.56;5021994;28;20075;-82
2022/07/20 09:28:51;;;;;;;2.53;2.30;;;;;;;33.20;28.02;98209.22;5021506;28;20042;-83
2022/07/20 09:31:29;;;;;;;3.00;2.50;;;;;;;33.25;27.80;98205.50;5009021;28;20053;-83
2022/07/20 09:34:13;;;;;;;1.98;1.83;;;;;;;33.38;28.54;98200.78;5022183;28;20111;-82
2022/07/20 09:36:44;;;;;;;2.13;1.90;;;;;;;33.44;27.89;98199.41;5006111;28;20085;-81
2022/07/20 09:39:15;;;;;;;3.35;2.10;;;;;;;33.57;26.91;98195.50;5020971;28;20045;-80
2022/07/20 09:41:56;;;;;;;2.00;1.80;;;;;;;33.65;26.21;98197.28;5022264;28;20076;-81
2022/07/20 09:44:27;;;;;;;2.25;2.00;;;;;;;33.71;26.95;98198.59;5023496;28;20085;-82
2022/07/20 09:46:55;;;;;;;2.15;2.00;;;;;;;33.86;27.73;98188.84;5025679;28;21022;-82
2022/07/20 09:49:32;;;;;;;2.85;2.20;;;;;;;33.92;27.15;98190.19;5022355;28;20069;-81
2022/07/20 09:52:02;;;;;;;2.25;1.92;;;;;;;34.04;26.50;98187.38;5021574;28;20068;-81
2022/07/20 09:54:48;;;;;;;2.57;2.20;;;;;;;34.03;26.29;98180.38;5023250;28;20045;-82
2022/07/20 09:57:18;;;;;;;2.50;2.30;;;;;;;34.01;24.98;98181.88;5023436;28;20284;-82
2022/07/20 09:59:50;;;;;;;2.33;2.10;;;;;;;34.11;26.79;98170.44;5025346;28;20056;-81
2022/07/20 10:02:19;;;;;;;4.55;2.47;;;;;;;34.16;25.46;98175.63;5020241;28;20120;-83
2022/07/20 10:04:47;;;;;;;2.33;2.13;;;;;;;34.29;26.73;98171.63;5022505;28;20042;-81
2022/07/20 10:07:14;;;;;;;4.38;2.80;;;;;;;34.31;24.94;98168.59;5023791;28;20675;-82
2022/07/20 10:09:40;;;;;;;2.50;2.22;;;;;;;34.41;26.75;98178.13;5024004;28;20053;-81
2022/07/20 10:12:08;;;;;;;2.35;2.15;;;;;;;34.50;25.02;98170.59;5022880;28;20485;-81
2022/07/20 10:14:35;;;;;;;2.25;2.05;;;;;;;34.51;25.68;98162.06;5023080;28;20042;-82
2022/07/20 10:17:02;;;;;;;1.98;1.88;;;;;;;34.66;25.22;98174.03;5022889;28;20033;-82
2022/07/20 10:19:47;;;;;;;2.53;2.17;;;;;;;34.59;24.34;98176.59;5017002;28;20563;-82
2022/07/20 10:22:15;;;;;;;3.13;2.30;;;;;;;34.69;25.06;98178.00;5020438;28;20046;-83
2022/07/20 10:24:44;;;;;;;2.25;2.03;;;;;;;34.79;23.77;98172.78;5023902;28;20442;-82
2022/07/20 10:27:12;;;;;;;3.92;2.67;;;;;;;34.87;23.63;98163.59;5020770;28;20081;-82
2022/07/20 10:29:43;;;;;;;2.58;2.38;;;;;;;34.91;25.00;98169.13;5022395;28;20045;-82
2022/07/20 10:32:14;;;;;;;2.35;2.13;;;;;;;35.07;23.96;98167.13;5019632;28;20069;-84
2022/07/20 10:34:43;;;;;;;2.50;2.30;;;;;;;35.11;23.19;98161.75;5020908;28;20076;-82
2022/07/20 10:37:38;;;;;;;2.43;2.23;;;;;;;35.11;24.37;98162.53;5024803;28;20045;-82
2022/07/20 10:40:28;;;;;;;3.10;2.75;;;;;;;35.09;22.62;98161.34;5020809;28;20676;-83
2022/07/20 10:43:13;;;;;;;;;;;;;;;35.17;23.43;98154.06;5028999;28;20038;-82
2022/07/20 10:45:42;;;;;;;3.13;2.70;;;;;;;35.26;24.03;98158.13;5019538;28;19983;-82
2022/07/20 10:48:11;;;;;;;2.42;2.22;;;;;;;35.33;23.87;98152.03;5021974;28;20037;-82
2022/07/20 10:50:42;;;;;;;3.92;2.17;;;;;;;35.33;25.02;98144.66;5021882;28;20044;-82
2022/07/20 10:53:08;;;;;;;3.20;2.10;;;;;;;35.49;24.06;98149.22;5019028;28;20061;-82
2022/07/20 10:55:35;;;;;;;2.45;2.20;;;;;;;35.57;22.99;98142.75;5019740;28;20060;-83
2022/07/20 10:58:10;;;;;;;2.53;2.30;;;;;;;35.66;24.23;98137.84;5025344;28;20498;-83
2022/07/20 11:00:44;;;;;;;2.85;1.90;;;;;;;35.82;23.87;98146.69;5020789;28;20123;-82
2022/07/20 11:03:25;;;;;;;2.17;2.00;;;;;;;35.88;23.41;98134.31;5020645;28;20037;-82
2022/07/20 11:06:02;;;;;;;2.50;2.30;;;;;;;36.01;23.52;98136.88;5021509;28;20116;-82
2022/07/20 11:08:32;;;;;;;2.63;2.20;;;;;;;35.94;23.80;98128.56;5019898;28;20050;-82
2022/07/20 11:10:59;;;;;;;2.17;2.08;;;;;;;35.96;23.81;98120.78;5020810;28;20049;-82
2022/07/20 11:13:26;;;;;;;4.05;2.55;;;;;;;36.00;23.58;98133.34;5019283;28;20047;-82
2022/07/20 11:16:00;;;;;;;2.75;2.30;;;;;;;36.04;23.38;98125.19;5019496;28;20404;-82
2022/07/20 11:18:33;;;;;;;2.92;2.47;;;;;;;36.01;23.27;98115.03;5010209;28;20046;-83
2022/07/20 11:21:11;;;;;;;2.33;2.10;;;;;;;36.14;24.24;98119.13;5022153;28;20112;-82
2022/07/20 11:23:50;;;;;;;2.97;2.35;;;;;;;36.19;23.41;98116.06;5024602;28;20520;-82
2022/07/20 11:26:20;;;;;;;6.95;3.35;;;;;;;36.19;21.44;98116.06;5023953;28;20041;-83
2022/07/20 11:28:54;;;;;;;3.92;2.90;;;;;;;36.30;22.84;98110.78;5025953;28;20485;-84
2022/07/20 11:31:29;;;;;;;4.95;2.72;;;;;;;36.35;23.17;98108.50;5022354;28;20073;-82
2022/07/20 11:33:59;;;;;;;2.50;2.30;;;;;;;36.49;22.46;98109.88;5026213;28;20628;-83
2022/07/20 11:36:34;;;;;;;3.05;2.85;;;;;;;36.56;22.85;98109.97;5027153;28;20696;-83
2022/07/20 11:39:06;;;;;;;4.35;2.70;;;;;;;36.63;23.06;98107.31;5027690;28;20129;-83
2022/07/20 11:41:42;;;;;;;3.22;2.70;;;;;;;36.61;21.96;98098.72;5007424;28;20068;-82
2022/07/20 11:44:17;;;;;;;3.05;2.78;;;;;;;36.66;21.83;98090.97;5024420;28;20112;-84